BJK9260 PGUM-PHNL
Flight info
| Callsign | BJK9260 |
|---|---|
| Flight time | N/A |
| Altitude | 35000 |
| Route | DEWSS A450 BRIUN NONNI BOOKE BOOKE8 |
| Aircraft | B77W/H-VGDW/C |
Departure
| Time | 2026-05-06 16:13 |
|---|---|
| Airport | Antonio B. Won Pat International Airport (PGUM) |
Arrival
| Time | N/A |
|---|---|
| Airport | Daniel K. Inouye International Airport (PHNL) |
| Time | Latitude | Longitude | Altitude | Speed | Heading |
|---|---|---|---|---|---|
| 2026-05-06 15:59 | 13.49010 | 144.80265 | 288 ft | 0 kts | 210° |
| 2026-05-06 16:07 | 13.48989 | 144.80257 | 288 ft | 9 kts | 195° |
| 2026-05-06 16:08 | 13.48880 | 144.80209 | 288 ft | 22 kts | 211° |
| 2026-05-06 16:08 | 13.48784 | 144.80090 | 285 ft | 22 kts | 245° |
| 2026-05-06 16:08 | 13.48720 | 144.79945 | 281 ft | 22 kts | 246° |
| 2026-05-06 16:08 | 13.48655 | 144.79799 | 275 ft | 22 kts | 245° |
| 2026-05-06 16:09 | 13.48588 | 144.79655 | 273 ft | 22 kts | 244° |
| 2026-05-06 16:09 | 13.48521 | 144.79511 | 268 ft | 22 kts | 244° |
| 2026-05-06 16:09 | 13.48455 | 144.79366 | 265 ft | 22 kts | 245° |
| 2026-05-06 16:09 | 13.48389 | 144.79222 | 263 ft | 22 kts | 245° |
| 2026-05-06 16:10 | 13.48324 | 144.79077 | 262 ft | 22 kts | 245° |
| 2026-05-06 16:10 | 13.48258 | 144.78934 | 262 ft | 22 kts | 244° |
| 2026-05-06 16:10 | 13.48192 | 144.78789 | 258 ft | 22 kts | 245° |
| 2026-05-06 16:10 | 13.48127 | 144.78644 | 256 ft | 22 kts | 245° |
| 2026-05-06 16:11 | 13.48061 | 144.78500 | 250 ft | 22 kts | 244° |
| 2026-05-06 16:11 | 13.47992 | 144.78349 | 245 ft | 24 kts | 244° |
| 2026-05-06 16:11 | 13.47917 | 144.78193 | 241 ft | 25 kts | 243° |
| 2026-05-06 16:11 | 13.47808 | 144.78159 | 240 ft | 15 kts | 125° |
| 2026-05-06 16:12 | 13.47860 | 144.78326 | 244 ft | 52 kts | 65° |
| 2026-05-06 16:12 | 13.48115 | 144.78886 | 257 ft | 119 kts | 64° |
| 2026-05-06 16:12 | 13.48550 | 144.79828 | 304 ft | 168 kts | 65° |
| 2026-05-06 16:12 | 13.49016 | 144.80943 | 812 ft | 178 kts | 69° |
| 2026-05-06 16:13 | 13.49483 | 144.82183 | 1353 ft | 182 kts | 70° |
| 2026-05-06 16:13 | 13.49924 | 144.83395 | 2009 ft | 187 kts | 71° |
| 2026-05-06 16:13 | 13.50397 | 144.84738 | 2266 ft | 209 kts | 72° |
| 2026-05-06 16:13 | 13.50921 | 144.86198 | 2669 ft | 225 kts | 72° |
| 2026-05-06 16:14 | 13.51468 | 144.87740 | 3279 ft | 232 kts | 72° |
| 2026-05-06 16:14 | 13.52021 | 144.89305 | 4024 ft | 240 kts | 73° |
| 2026-05-06 16:14 | 13.52591 | 144.90943 | 4704 ft | 247 kts | 72° |
| 2026-05-06 16:14 | 13.53178 | 144.92639 | 5444 ft | 251 kts | 72° |
| 2026-05-06 16:15 | 13.53762 | 144.94333 | 6247 ft | 252 kts | 72° |
| 2026-05-06 16:15 | 13.54352 | 144.96045 | 6920 ft | 256 kts | 72° |
| 2026-05-06 16:15 | 13.54951 | 144.97787 | 7568 ft | 260 kts | 72° |
| 2026-05-06 16:15 | 13.55553 | 144.99546 | 8236 ft | 263 kts | 72° |
| 2026-05-06 16:16 | 13.56160 | 145.01327 | 8906 ft | 266 kts | 72° |
| 2026-05-06 16:16 | 13.56779 | 145.03133 | 9593 ft | 269 kts | 72° |
| 2026-05-06 16:16 | 13.57403 | 145.04960 | 10214 ft | 273 kts | 72° |
| 2026-05-06 16:16 | 13.58040 | 145.06829 | 10528 ft | 291 kts | 72° |
| 2026-05-06 16:17 | 13.58732 | 145.08864 | 10690 ft | 313 kts | 72° |
| 2026-05-06 16:17 | 13.59477 | 145.11056 | 10835 ft | 336 kts | 72° |
| 2026-05-06 16:17 | 13.60272 | 145.13392 | 11122 ft | 353 kts | 72° |
| 2026-05-06 16:17 | 13.61092 | 145.15802 | 11687 ft | 362 kts | 72° |
| 2026-05-06 16:18 | 13.61934 | 145.18270 | 12348 ft | 369 kts | 72° |
| 2026-05-06 16:18 | 13.62786 | 145.20774 | 13046 ft | 374 kts | 72° |
| 2026-05-06 16:18 | 13.63649 | 145.23306 | 13813 ft | 377 kts | 72° |
| 2026-05-06 16:18 | 13.64520 | 145.25867 | 14444 ft | 382 kts | 72° |
| 2026-05-06 16:19 | 13.65404 | 145.28467 | 15052 ft | 387 kts | 72° |
| 2026-05-06 16:19 | 13.66293 | 145.31085 | 15738 ft | 389 kts | 72° |
| 2026-05-06 16:19 | 13.67192 | 145.33726 | 16347 ft | 394 kts | 72° |
| 2026-05-06 16:19 | 13.68099 | 145.36402 | 16942 ft | 399 kts | 72° |
| 2026-05-06 16:20 | 13.69013 | 145.39098 | 17621 ft | 401 kts | 72° |
| 2026-05-06 16:20 | 13.69939 | 145.41830 | 18167 ft | 407 kts | 72° |
| 2026-05-06 16:20 | 13.70873 | 145.44586 | 18739 ft | 409 kts | 72° |
| 2026-05-06 16:20 | 13.71812 | 145.47359 | 19259 ft | 413 kts | 71° |
| 2026-05-06 16:21 | 13.72752 | 145.50137 | 19745 ft | 417 kts | 72° |
| 2026-05-06 16:21 | 13.73704 | 145.52949 | 20419 ft | 417 kts | 72° |
| 2026-05-06 16:21 | 13.74666 | 145.55787 | 20845 ft | 423 kts | 71° |
| 2026-05-06 16:21 | 13.75637 | 145.58659 | 21416 ft | 426 kts | 72° |
| 2026-05-06 16:22 | 13.76616 | 145.61554 | 21805 ft | 433 kts | 71° |
| 2026-05-06 16:22 | 13.77610 | 145.64494 | 22340 ft | 435 kts | 71° |
| 2026-05-06 16:22 | 13.78603 | 145.67434 | 22896 ft | 437 kts | 71° |
| 2026-05-06 16:22 | 13.79612 | 145.70424 | 23227 ft | 445 kts | 71° |
| 2026-05-06 16:23 | 13.80629 | 145.73438 | 23729 ft | 447 kts | 71° |
| 2026-05-06 16:23 | 13.81654 | 145.76478 | 24016 ft | 454 kts | 71° |
| 2026-05-06 16:23 | 13.82693 | 145.79556 | 24406 ft | 456 kts | 71° |
| 2026-05-06 16:23 | 13.83733 | 145.82641 | 24892 ft | 458 kts | 71° |
| 2026-05-06 16:24 | 13.84784 | 145.85764 | 25151 ft | 465 kts | 71° |
| 2026-05-06 16:24 | 13.85848 | 145.88922 | 25453 ft | 470 kts | 71° |
| 2026-05-06 16:24 | 13.86923 | 145.92117 | 25768 ft | 475 kts | 71° |
| 2026-05-06 16:24 | 13.88004 | 145.95332 | 26126 ft | 478 kts | 71° |
| 2026-05-06 16:25 | 13.89096 | 145.98579 | 26470 ft | 482 kts | 71° |
| 2026-05-06 16:25 | 13.90198 | 146.01858 | 26783 ft | 486 kts | 71° |
| 2026-05-06 16:25 | 13.91306 | 146.05158 | 27108 ft | 490 kts | 71° |
| 2026-05-06 16:25 | 13.92425 | 146.08490 | 27413 ft | 494 kts | 71° |
| 2026-05-06 16:26 | 13.93549 | 146.11842 | 27722 ft | 498 kts | 71° |
| 2026-05-06 16:26 | 13.94685 | 146.15228 | 28037 ft | 502 kts | 70° |
| 2026-05-06 16:26 | 13.95829 | 146.18637 | 28305 ft | 506 kts | 70° |
| 2026-05-06 16:26 | 13.96979 | 146.22065 | 28643 ft | 508 kts | 70° |
| 2026-05-06 16:27 | 13.98135 | 146.25516 | 28868 ft | 513 kts | 70° |
| 2026-05-06 16:27 | 13.99296 | 146.28987 | 29256 ft | 513 kts | 70° |
| 2026-05-06 16:27 | 14.00464 | 146.32481 | 29448 ft | 519 kts | 70° |
| 2026-05-06 16:27 | 14.01634 | 146.35985 | 29930 ft | 516 kts | 70° |
| 2026-05-06 16:28 | 14.02808 | 146.39500 | 30070 ft | 522 kts | 70° |
| 2026-05-06 16:28 | 14.03983 | 146.43016 | 30558 ft | 517 kts | 70° |
| 2026-05-06 16:28 | 14.05154 | 146.46522 | 30858 ft | 520 kts | 70° |
| 2026-05-06 16:28 | 14.06314 | 146.50000 | 31207 ft | 518 kts | 70° |
| 2026-05-06 16:29 | 14.07484 | 146.53509 | 31565 ft | 519 kts | 70° |
| 2026-05-06 16:29 | 14.08654 | 146.57018 | 31925 ft | 517 kts | 70° |
| 2026-05-06 16:29 | 14.09820 | 146.60519 | 32276 ft | 518 kts | 70° |
| 2026-05-06 16:29 | 14.10991 | 146.64039 | 32520 ft | 519 kts | 71° |
| 2026-05-06 16:30 | 14.12158 | 146.67551 | 32874 ft | 519 kts | 71° |
| 2026-05-06 16:30 | 14.12951 | 146.69935 | 33048 ft | 520 kts | 71° |
| 2026-05-06 16:30 | 14.14495 | 146.74578 | 33598 ft | 517 kts | 71° |
| 2026-05-06 16:30 | 14.15660 | 146.78084 | 33864 ft | 518 kts | 71° |
| 2026-05-06 16:31 | 14.16824 | 146.81591 | 34169 ft | 517 kts | 71° |
| 2026-05-06 16:31 | 14.17985 | 146.85092 | 34439 ft | 517 kts | 71° |
| 2026-05-06 16:31 | 14.19143 | 146.88587 | 34781 ft | 514 kts | 71° |
| 2026-05-06 16:31 | 14.20301 | 146.92079 | 34933 ft | 515 kts | 71° |
| 2026-05-06 16:32 | 14.22614 | 146.99060 | 34911 ft | 514 kts | 71° |
| 2026-05-06 16:32 | 14.24922 | 147.06035 | 34910 ft | 514 kts | 71° |
| 2026-05-06 16:33 | 14.27219 | 147.12987 | 34910 ft | 514 kts | 71° |
| 2026-05-06 16:34 | 14.30675 | 147.23460 | 34914 ft | 515 kts | 71° |
| 2026-05-06 16:34 | 14.32979 | 147.30454 | 34909 ft | 515 kts | 71° |
| 2026-05-06 16:35 | 14.35282 | 147.37451 | 34906 ft | 516 kts | 71° |
| 2026-05-06 16:35 | 14.37584 | 147.44451 | 34912 ft | 515 kts | 71° |
| 2026-05-06 16:36 | 14.39884 | 147.51448 | 34906 ft | 515 kts | 71° |
| 2026-05-06 16:36 | 14.42164 | 147.58390 | 34908 ft | 514 kts | 71° |
| 2026-05-06 16:37 | 14.44451 | 147.65371 | 34908 ft | 514 kts | 71° |
| 2026-05-06 16:37 | 14.46736 | 147.72352 | 34909 ft | 514 kts | 71° |
| 2026-05-06 16:38 | 14.48648 | 147.78197 | 34913 ft | 513 kts | 71° |
| 2026-05-06 16:38 | 14.50928 | 147.85174 | 34914 ft | 513 kts | 71° |
| 2026-05-06 16:39 | 14.53203 | 147.92146 | 34916 ft | 513 kts | 71° |
| 2026-05-06 16:39 | 14.55478 | 147.99128 | 34917 ft | 513 kts | 71° |
| 2026-05-06 16:40 | 14.57750 | 148.06100 | 34913 ft | 513 kts | 71° |
| 2026-05-06 16:40 | 14.60021 | 148.13081 | 34925 ft | 513 kts | 71° |
| 2026-05-06 16:41 | 14.62293 | 148.20075 | 34915 ft | 514 kts | 71° |
| 2026-05-06 16:41 | 14.64564 | 148.27065 | 34916 ft | 514 kts | 71° |
| 2026-05-06 16:42 | 14.66838 | 148.34089 | 34914 ft | 515 kts | 71° |
| 2026-05-06 16:42 | 14.69109 | 148.41100 | 34916 ft | 516 kts | 71° |
| 2026-05-06 16:43 | 14.71381 | 148.48124 | 34918 ft | 515 kts | 71° |
| 2026-05-06 16:43 | 14.73653 | 148.55159 | 34910 ft | 516 kts | 71° |
| 2026-05-06 16:44 | 14.75912 | 148.62181 | 34917 ft | 514 kts | 71° |
| 2026-05-06 16:44 | 14.78159 | 148.69148 | 34915 ft | 514 kts | 71° |
| 2026-05-06 16:45 | 14.80410 | 148.76102 | 34917 ft | 512 kts | 71° |
| 2026-05-06 16:45 | 14.82652 | 148.83093 | 34925 ft | 512 kts | 71° |
| 2026-05-06 16:46 | 14.84896 | 148.90084 | 34927 ft | 513 kts | 71° |
| 2026-05-06 16:46 | 14.87143 | 148.97084 | 34930 ft | 514 kts | 71° |
| 2026-05-06 16:47 | 14.89256 | 149.04149 | 34930 ft | 515 kts | 74° |
| 2026-05-06 16:47 | 14.91145 | 149.11304 | 34923 ft | 516 kts | 75° |
| 2026-05-06 16:48 | 14.93018 | 149.18464 | 34927 ft | 516 kts | 75° |
| 2026-05-06 16:48 | 14.94929 | 149.25616 | 34926 ft | 516 kts | 75° |
| 2026-05-06 16:49 | 14.96864 | 149.32771 | 34916 ft | 517 kts | 75° |
| 2026-05-06 16:49 | 14.98800 | 149.39935 | 34919 ft | 517 kts | 75° |
| 2026-05-06 16:50 | 15.00730 | 149.47096 | 34926 ft | 517 kts | 75° |
| 2026-05-06 16:50 | 15.02659 | 149.54252 | 34922 ft | 517 kts | 75° |
| 2026-05-06 16:51 | 15.04585 | 149.61416 | 34928 ft | 516 kts | 75° |
| 2026-05-06 16:51 | 15.06506 | 149.68574 | 34925 ft | 517 kts | 75° |
| 2026-05-06 16:52 | 15.08426 | 149.75737 | 34922 ft | 517 kts | 75° |
| 2026-05-06 16:52 | 15.10346 | 149.82901 | 34928 ft | 517 kts | 75° |
| 2026-05-06 16:53 | 15.12262 | 149.90069 | 34922 ft | 517 kts | 75° |
| 2026-05-06 16:53 | 15.14174 | 149.97234 | 34927 ft | 517 kts | 75° |
| 2026-05-06 16:54 | 15.16076 | 150.04369 | 34926 ft | 517 kts | 75° |
| 2026-05-06 16:54 | 15.17985 | 150.11545 | 34927 ft | 518 kts | 75° |
| 2026-05-06 16:55 | 15.19898 | 150.18736 | 34923 ft | 518 kts | 75° |
| 2026-05-06 16:55 | 15.21809 | 150.25928 | 34926 ft | 518 kts | 75° |
| 2026-05-06 16:56 | 15.23714 | 150.33121 | 34932 ft | 518 kts | 74° |
| 2026-05-06 16:56 | 15.25622 | 150.40322 | 34927 ft | 518 kts | 74° |
| 2026-05-06 16:57 | 15.27527 | 150.47526 | 34928 ft | 518 kts | 74° |
| 2026-05-06 16:57 | 15.29429 | 150.54730 | 34933 ft | 519 kts | 74° |
| 2026-05-06 16:58 | 15.31330 | 150.61937 | 34929 ft | 519 kts | 74° |
| 2026-05-06 16:58 | 15.33228 | 150.69142 | 34929 ft | 519 kts | 74° |
| 2026-05-06 16:59 | 15.35124 | 150.76360 | 34934 ft | 519 kts | 74° |
| 2026-05-06 16:59 | 15.37019 | 150.83576 | 34935 ft | 519 kts | 74° |
| 2026-05-06 17:00 | 15.38913 | 150.90801 | 34929 ft | 519 kts | 74° |
| 2026-05-06 17:00 | 15.40805 | 150.98025 | 34938 ft | 520 kts | 74° |
| 2026-05-06 17:01 | 15.42695 | 151.05254 | 34938 ft | 519 kts | 74° |
| 2026-05-06 17:01 | 15.44570 | 151.12438 | 34936 ft | 519 kts | 74° |
| 2026-05-06 17:02 | 15.46456 | 151.19653 | 34936 ft | 519 kts | 74° |
| 2026-05-06 17:02 | 15.48331 | 151.26860 | 34941 ft | 519 kts | 74° |
| 2026-05-06 17:03 | 15.50204 | 151.34068 | 34941 ft | 519 kts | 74° |
| 2026-05-06 17:03 | 15.52071 | 151.41267 | 34940 ft | 519 kts | 74° |
| 2026-05-06 17:04 | 15.53944 | 151.48499 | 34939 ft | 519 kts | 74° |
| 2026-05-06 17:04 | 15.55817 | 151.55732 | 34938 ft | 519 kts | 74° |
| 2026-05-06 17:05 | 15.57689 | 151.62968 | 34937 ft | 519 kts | 74° |
| 2026-05-06 17:05 | 15.59554 | 151.70193 | 34945 ft | 520 kts | 74° |
| 2026-05-06 17:06 | 15.61419 | 151.77429 | 34944 ft | 520 kts | 74° |
| 2026-05-06 17:06 | 15.63285 | 151.84677 | 34946 ft | 520 kts | 74° |
| 2026-05-06 17:07 | 15.65138 | 151.91884 | 34946 ft | 520 kts | 74° |
| 2026-05-06 17:07 | 15.66997 | 151.99137 | 34950 ft | 520 kts | 74° |
| 2026-05-06 17:08 | 15.68867 | 152.06434 | 34950 ft | 520 kts | 74° |
| 2026-05-06 17:08 | 15.70728 | 152.13699 | 34948 ft | 520 kts | 74° |
| 2026-05-06 17:09 | 15.72569 | 152.20904 | 34946 ft | 520 kts | 74° |
| 2026-05-06 17:09 | 15.74420 | 152.28161 | 34945 ft | 520 kts | 74° |
| 2026-05-06 17:10 | 15.76270 | 152.35426 | 34950 ft | 520 kts | 74° |
| 2026-05-06 17:10 | 15.78117 | 152.42685 | 34947 ft | 520 kts | 74° |
| 2026-05-06 17:11 | 15.79961 | 152.49943 | 34947 ft | 520 kts | 74° |
| 2026-05-06 17:11 | 15.81803 | 152.57207 | 34950 ft | 520 kts | 74° |
| 2026-05-06 17:12 | 15.83642 | 152.64469 | 34953 ft | 520 kts | 74° |
| 2026-05-06 17:12 | 15.85480 | 152.71737 | 34950 ft | 520 kts | 74° |
| 2026-05-06 17:13 | 15.87314 | 152.79005 | 34949 ft | 520 kts | 74° |
| 2026-05-06 17:13 | 15.89147 | 152.86278 | 34950 ft | 520 kts | 73° |
| 2026-05-06 17:14 | 15.90976 | 152.93548 | 34959 ft | 520 kts | 73° |
| 2026-05-06 17:14 | 15.92804 | 153.00821 | 34953 ft | 520 kts | 73° |
| 2026-05-06 17:15 | 15.94630 | 153.08090 | 34957 ft | 520 kts | 73° |
| 2026-05-06 17:15 | 15.96451 | 153.15361 | 34957 ft | 520 kts | 73° |
| 2026-05-06 17:16 | 15.98271 | 153.22635 | 34957 ft | 520 kts | 73° |
| 2026-05-06 17:16 | 16.00088 | 153.29901 | 34957 ft | 520 kts | 73° |
| 2026-05-06 17:17 | 16.01901 | 153.37171 | 34953 ft | 520 kts | 73° |
| 2026-05-06 17:17 | 16.03711 | 153.44442 | 34958 ft | 520 kts | 73° |
| 2026-05-06 17:18 | 16.05509 | 153.51675 | 34958 ft | 520 kts | 73° |
| 2026-05-06 17:18 | 16.07315 | 153.58953 | 34957 ft | 520 kts | 73° |
| 2026-05-06 17:19 | 16.09122 | 153.66234 | 34955 ft | 520 kts | 73° |
| 2026-05-06 17:19 | 16.10926 | 153.73527 | 34960 ft | 520 kts | 73° |
| 2026-05-06 17:20 | 16.12724 | 153.80805 | 34962 ft | 521 kts | 73° |
| 2026-05-06 17:20 | 16.14525 | 153.88105 | 34960 ft | 521 kts | 73° |
| 2026-05-06 17:21 | 16.16324 | 153.95404 | 34956 ft | 521 kts | 73° |
| 2026-05-06 17:21 | 16.18120 | 154.02703 | 34965 ft | 521 kts | 73° |
| 2026-05-06 17:22 | 16.19911 | 154.10005 | 34961 ft | 521 kts | 73° |
| 2026-05-06 17:22 | 16.21702 | 154.17310 | 34964 ft | 521 kts | 73° |
| 2026-05-06 17:23 | 16.23494 | 154.24613 | 34965 ft | 521 kts | 73° |
| 2026-05-06 17:23 | 16.25273 | 154.31885 | 34965 ft | 521 kts | 73° |
| 2026-05-06 17:24 | 16.27057 | 154.39198 | 34970 ft | 521 kts | 73° |
| 2026-05-06 17:24 | 16.28534 | 154.45270 | 34966 ft | 521 kts | 73° |
| 2026-05-06 17:25 | 16.30305 | 154.52550 | 34964 ft | 521 kts | 73° |
| 2026-05-06 17:25 | 16.32079 | 154.59852 | 34968 ft | 520 kts | 73° |
| 2026-05-06 17:26 | 16.33851 | 154.67150 | 34974 ft | 520 kts | 73° |
| 2026-05-06 17:26 | 16.35617 | 154.74440 | 34973 ft | 519 kts | 73° |
| 2026-05-06 17:27 | 16.37375 | 154.81725 | 34965 ft | 518 kts | 73° |
| 2026-05-06 17:27 | 16.39123 | 154.88959 | 34968 ft | 517 kts | 73° |
| 2026-05-06 17:28 | 16.40872 | 154.96212 | 34966 ft | 516 kts | 73° |
| 2026-05-06 17:28 | 16.42605 | 155.03412 | 34977 ft | 515 kts | 73° |
| 2026-05-06 17:29 | 16.44344 | 155.10648 | 34975 ft | 514 kts | 73° |
| 2026-05-06 17:29 | 16.46085 | 155.17912 | 34972 ft | 513 kts | 73° |
| 2026-05-06 17:30 | 16.47811 | 155.25125 | 34975 ft | 512 kts | 73° |
| 2026-05-06 17:30 | 16.49532 | 155.32326 | 34975 ft | 512 kts | 73° |
| 2026-05-06 17:31 | 16.51242 | 155.39484 | 34977 ft | 513 kts | 73° |
| 2026-05-06 17:31 | 16.52960 | 155.46688 | 34981 ft | 513 kts | 73° |
| 2026-05-06 17:32 | 16.54678 | 155.53902 | 34977 ft | 513 kts | 73° |
| 2026-05-06 17:32 | 16.56394 | 155.61127 | 34977 ft | 514 kts | 73° |
| 2026-05-06 17:33 | 16.58104 | 155.68348 | 34991 ft | 512 kts | 74° |
| 2026-05-06 17:33 | 16.59807 | 155.75536 | 34974 ft | 510 kts | 74° |
| 2026-05-06 17:34 | 16.61502 | 155.82709 | 34979 ft | 508 kts | 74° |
| 2026-05-06 17:34 | 16.63184 | 155.89836 | 34979 ft | 506 kts | 74° |
| 2026-05-06 17:35 | 16.64861 | 155.96954 | 34980 ft | 505 kts | 74° |
| 2026-05-06 17:35 | 16.66530 | 156.04043 | 34982 ft | 504 kts | 74° |
| 2026-05-06 17:36 | 16.69033 | 156.14709 | 34987 ft | 505 kts | 74° |
| 2026-05-06 17:36 | 16.70701 | 156.21824 | 34981 ft | 506 kts | 74° |
| 2026-05-06 17:37 | 16.72371 | 156.28960 | 34998 ft | 507 kts | 74° |
| 2026-05-06 17:37 | 16.74037 | 156.36097 | 34991 ft | 507 kts | 74° |
| 2026-05-06 17:38 | 16.75698 | 156.43226 | 34986 ft | 507 kts | 74° |
| 2026-05-06 17:38 | 16.77365 | 156.50381 | 34988 ft | 508 kts | 74° |
| 2026-05-06 17:39 | 16.79017 | 156.57491 | 34996 ft | 508 kts | 74° |
| 2026-05-06 17:39 | 16.80689 | 156.64702 | 34998 ft | 508 kts | 74° |
| 2026-05-06 17:40 | 16.82350 | 156.71875 | 34994 ft | 508 kts | 74° |
| 2026-05-06 17:40 | 16.83994 | 156.78987 | 34994 ft | 507 kts | 74° |
| 2026-05-06 17:41 | 16.85646 | 156.86141 | 34991 ft | 507 kts | 74° |
| 2026-05-06 17:41 | 16.87294 | 156.93296 | 34995 ft | 507 kts | 74° |
| 2026-05-06 17:42 | 16.88939 | 157.00449 | 34992 ft | 506 kts | 74° |
| 2026-05-06 17:42 | 16.90583 | 157.07602 | 34991 ft | 506 kts | 74° |
| 2026-05-06 17:43 | 16.92223 | 157.14755 | 34993 ft | 506 kts | 74° |
| 2026-05-06 17:43 | 16.93860 | 157.21905 | 35002 ft | 506 kts | 74° |
| 2026-05-06 17:44 | 16.95492 | 157.29053 | 34999 ft | 506 kts | 74° |
| 2026-05-06 17:44 | 16.97127 | 157.36213 | 34998 ft | 506 kts | 74° |
| 2026-05-06 17:45 | 16.98756 | 157.43370 | 35000 ft | 506 kts | 74° |
| 2026-05-06 17:45 | 17.00380 | 157.50523 | 35000 ft | 506 kts | 74° |
| 2026-05-06 17:46 | 17.02005 | 157.57684 | 35008 ft | 506 kts | 74° |
| 2026-05-06 17:46 | 17.03626 | 157.64835 | 35002 ft | 506 kts | 74° |
| 2026-05-06 17:47 | 17.05244 | 157.71989 | 35006 ft | 506 kts | 74° |
| 2026-05-06 17:47 | 17.06860 | 157.79155 | 35008 ft | 507 kts | 74° |
| 2026-05-06 17:48 | 17.08476 | 157.86322 | 35005 ft | 507 kts | 74° |
| 2026-05-06 17:48 | 17.10092 | 157.93502 | 35004 ft | 507 kts | 74° |
| 2026-05-06 17:49 | 17.11701 | 158.00678 | 35003 ft | 508 kts | 74° |
| 2026-05-06 17:49 | 17.13311 | 158.07859 | 35002 ft | 508 kts | 74° |
| 2026-05-06 17:50 | 17.14905 | 158.15002 | 35003 ft | 507 kts | 74° |
| 2026-05-06 17:50 | 17.16511 | 158.22189 | 35015 ft | 508 kts | 74° |
| 2026-05-06 17:51 | 17.18113 | 158.29373 | 35003 ft | 508 kts | 74° |
| 2026-05-06 17:51 | 17.19713 | 158.36565 | 34999 ft | 508 kts | 74° |
| 2026-05-06 17:52 | 17.21310 | 158.43764 | 35005 ft | 508 kts | 74° |
| 2026-05-06 17:52 | 17.22906 | 158.50962 | 35003 ft | 508 kts | 74° |
| 2026-05-06 17:53 | 17.24499 | 158.58156 | 35014 ft | 508 kts | 74° |
| 2026-05-06 17:53 | 17.26086 | 158.65348 | 35018 ft | 507 kts | 74° |
| 2026-05-06 17:54 | 17.27667 | 158.72528 | 35009 ft | 506 kts | 74° |
| 2026-05-06 17:54 | 17.29244 | 158.79693 | 35009 ft | 504 kts | 74° |
| 2026-05-06 17:55 | 17.30814 | 158.86836 | 35022 ft | 503 kts | 74° |
| 2026-05-06 17:55 | 17.32379 | 158.93977 | 35011 ft | 503 kts | 74° |
| 2026-05-06 17:56 | 17.33935 | 159.01085 | 35014 ft | 503 kts | 74° |
| 2026-05-06 17:56 | 17.35495 | 159.08215 | 35020 ft | 502 kts | 74° |
| 2026-05-06 17:57 | 17.37049 | 159.15346 | 35021 ft | 503 kts | 74° |
| 2026-05-06 17:57 | 17.38603 | 159.22480 | 35027 ft | 503 kts | 74° |
| 2026-05-06 17:58 | 17.40158 | 159.29633 | 35012 ft | 504 kts | 74° |
| 2026-05-06 17:58 | 17.41699 | 159.36742 | 35013 ft | 504 kts | 74° |
| 2026-05-06 17:59 | 17.43250 | 159.43904 | 35015 ft | 504 kts | 74° |
| 2026-05-06 17:59 | 17.44798 | 159.51066 | 35027 ft | 504 kts | 74° |
| 2026-05-06 18:00 | 17.46343 | 159.58229 | 35021 ft | 504 kts | 74° |
| 2026-05-06 18:00 | 17.47886 | 159.65389 | 35022 ft | 504 kts | 74° |
| 2026-05-06 18:01 | 17.49427 | 159.72556 | 35024 ft | 505 kts | 74° |
| 2026-05-06 18:01 | 17.50966 | 159.79731 | 35020 ft | 505 kts | 74° |
| 2026-05-06 18:02 | 17.52503 | 159.86910 | 35036 ft | 505 kts | 74° |
| 2026-05-06 18:02 | 17.54039 | 159.94095 | 35021 ft | 505 kts | 74° |
| 2026-05-06 18:03 | 17.55572 | 160.01279 | 35023 ft | 506 kts | 74° |
| 2026-05-06 18:03 | 17.57105 | 160.08471 | 35020 ft | 506 kts | 74° |
| 2026-05-06 18:04 | 17.58634 | 160.15659 | 35022 ft | 505 kts | 74° |
| 2026-05-06 18:04 | 17.60159 | 160.22849 | 35032 ft | 505 kts | 74° |
| 2026-05-06 18:05 | 17.61680 | 160.30042 | 35023 ft | 505 kts | 74° |
| 2026-05-06 18:05 | 17.63201 | 160.37232 | 35023 ft | 505 kts | 74° |
| 2026-05-06 18:06 | 17.64711 | 160.44375 | 35025 ft | 505 kts | 74° |
| 2026-05-06 18:06 | 17.66224 | 160.51565 | 35026 ft | 506 kts | 74° |
| 2026-05-06 18:07 | 17.67746 | 160.58818 | 35032 ft | 506 kts | 74° |
| 2026-05-06 18:07 | 17.69246 | 160.65970 | 35025 ft | 506 kts | 75° |
| 2026-05-06 18:08 | 17.70756 | 160.73172 | 35023 ft | 505 kts | 74° |
| 2026-05-06 18:08 | 17.72263 | 160.80367 | 35025 ft | 505 kts | 74° |
| 2026-05-06 18:09 | 17.73763 | 160.87564 | 35024 ft | 505 kts | 75° |
| 2026-05-06 18:09 | 17.75263 | 160.94770 | 35039 ft | 506 kts | 75° |
| 2026-05-06 18:10 | 17.76760 | 161.01978 | 35032 ft | 506 kts | 75° |
| 2026-05-06 18:10 | 17.78256 | 161.09193 | 35032 ft | 506 kts | 75° |
| 2026-05-06 18:11 | 17.79498 | 161.15189 | 35036 ft | 506 kts | 75° |
| 2026-05-06 18:11 | 17.81243 | 161.23629 | 35044 ft | 506 kts | 75° |
| 2026-05-06 18:12 | 17.82732 | 161.30856 | 35032 ft | 507 kts | 75° |
| 2026-05-06 18:12 | 17.84219 | 161.38079 | 35033 ft | 507 kts | 75° |
| 2026-05-06 18:13 | 17.85696 | 161.45269 | 35033 ft | 508 kts | 75° |
| 2026-05-06 18:13 | 17.87182 | 161.52519 | 35032 ft | 508 kts | 75° |
| 2026-05-06 18:14 | 17.88664 | 161.59761 | 35045 ft | 508 kts | 75° |
| 2026-05-06 18:14 | 17.89897 | 161.65795 | 35035 ft | 509 kts | 75° |
| 2026-05-06 18:15 | 17.91376 | 161.73056 | 35034 ft | 509 kts | 75° |
| 2026-05-06 18:15 | 17.92855 | 161.80326 | 35032 ft | 509 kts | 75° |
| 2026-05-06 18:16 | 17.94332 | 161.87594 | 35042 ft | 510 kts | 75° |
| 2026-05-06 18:16 | 17.95808 | 161.94878 | 35034 ft | 510 kts | 75° |
| 2026-05-06 18:17 | 17.97280 | 162.02161 | 35033 ft | 510 kts | 76° |
| 2026-05-06 18:17 | 17.98749 | 162.09442 | 35037 ft | 509 kts | 76° |
| 2026-05-06 18:18 | 18.00214 | 162.16719 | 35038 ft | 509 kts | 76° |
| 2026-05-06 18:18 | 18.01676 | 162.23993 | 35039 ft | 509 kts | 76° |
| 2026-05-06 18:19 | 18.03139 | 162.31280 | 35043 ft | 510 kts | 76° |
| 2026-05-06 18:19 | 18.04598 | 162.38572 | 35042 ft | 510 kts | 76° |
| 2026-05-06 18:20 | 18.06059 | 162.45875 | 35040 ft | 511 kts | 76° |